Time;durP1;ratioP1;P1;durP2;ratioP2;P2;SDS_P1;SDS_P2;PMS_P1;PMS_P2;Temp;Humidity;BMP_temperature;BMP_pressure;BME280_temperature;BME280_humidity;BME280_pressure;Samples;Min_cycle;Max_cycle;Signal;HPM_P1;HPM_P2
2021/12/19 00:01:00;;;;;;;30.30;17.20;;;7.50;99.90;;;;;;5095591;28;20046;-77
2021/12/19 00:03:51;;;;;;;31.75;17.10;;;7.50;99.90;;;;;;5095590;28;20023;-78
2021/12/19 00:09:02;;;;;;;30.95;16.02;;;7.50;99.90;;;;;;5113994;28;20062;-78
2021/12/19 00:11:29;;;;;;;37.88;19.25;;;7.50;99.90;;;;;;5095759;28;20031;-77
2021/12/19 00:13:56;;;;;;;31.40;15.82;;;7.50;99.90;;;;;;5114205;28;20034;-78
2021/12/19 00:16:22;;;;;;;40.05;18.10;;;7.50;99.90;;;;;;5094973;28;20074;-78
2021/12/19 00:18:50;;;;;;;31.40;16.00;;;7.50;99.90;;;;;;5113175;28;20441;-77
2021/12/19 00:21:17;;;;;;;37.97;16.85;;;7.50;99.90;;;;;;5112728;28;20103;-78
2021/12/19 00:23:44;;;;;;;32.50;16.17;;;7.50;99.90;;;;;;5093556;28;20020;-78
2021/12/19 00:26:10;;;;;;;32.72;16.10;;;7.50;99.90;;;;;;5110664;28;20035;-78
2021/12/19 00:28:36;;;;;;;33.85;17.67;;;7.50;99.90;;;;;;5092718;28;20093;-78
2021/12/19 00:31:03;;;;;;;37.05;16.25;;;7.50;99.90;;;;;;5112186;28;20039;-77
2021/12/19 00:33:29;;;;;;;32.47;16.75;;;7.50;99.90;;;;;;5112541;28;20035;-78
2021/12/19 00:35:55;;;;;;;29.70;16.38;;;7.50;99.90;;;;;;5112675;28;20116;-78
2021/12/19 00:38:21;;;;;;;29.63;15.98;;;7.50;99.90;;;;;;5113035;28;20426;-77
2021/12/19 00:40:47;;;;;;;33.20;15.90;;;7.50;99.90;;;;;;5112821;28;20414;-78
2021/12/19 00:43:23;;;;;;;30.15;16.63;;;7.50;99.90;;;;;;5113118;28;20034;-78
2021/12/19 00:45:52;;;;;;;36.83;17.33;;;7.50;99.90;;;;;;5112654;28;20476;-78
2021/12/19 00:48:17;;;;;;;31.73;17.23;;;7.60;99.90;;;;;;5113130;28;20047;-78
2021/12/19 00:50:43;;;;;;;35.63;17.42;;;7.50;99.90;;;;;;5093933;28;20062;-78
2021/12/19 00:53:09;;;;;;;30.30;15.88;;;7.60;99.90;;;;;;5094257;28;20080;-78
2021/12/19 00:55:36;;;;;;;29.08;16.02;;;7.60;99.90;;;;;;5094144;28;20023;-78
2021/12/19 00:58:02;;;;;;;31.92;16.73;;;7.60;99.90;;;;;;5093140;28;20023;-78
2021/12/19 01:00:32;;;;;;;31.23;16.20;;;7.60;99.90;;;;;;5111475;28;20028;-77
2021/12/19 01:02:59;;;;;;;36.25;17.92;;;7.60;99.90;;;;;;5092753;28;20017;-78
2021/12/19 01:05:31;;;;;;;29.60;16.40;;;7.60;99.90;;;;;;5073687;28;20794;-78
2021/12/19 01:07:57;;;;;;;29.27;15.55;;;7.60;99.90;;;;;;5093675;28;20372;-78
2021/12/19 01:10:23;;;;;;;34.30;18.25;;;7.50;99.90;;;;;;5094348;28;20039;-78
2021/12/19 01:12:49;;;;;;;31.33;16.90;;;7.60;99.90;;;;;;5112822;28;20035;-78
2021/12/19 01:15:17;;;;;;;28.52;15.95;;;7.50;99.90;;;;;;5077739;28;20507;-78
2021/12/19 01:17:43;;;;;;;28.13;15.20;;;7.60;99.90;;;;;;5112362;28;20024;-78
2021/12/19 01:20:15;;;;;;;26.75;15.05;;;7.60;99.90;;;;;;5093953;28;20107;-78
2021/12/19 01:22:42;;;;;;;34.53;16.67;;;7.60;99.90;;;;;;5111887;28;20020;-78
2021/12/19 01:25:07;;;;;;;35.10;17.52;;;7.60;99.90;;;;;;5092018;28;20042;-78
2021/12/19 01:27:33;;;;;;;31.00;16.08;;;7.60;99.90;;;;;;5075173;28;20122;-78
2021/12/19 01:29:59;;;;;;;32.33;16.33;;;7.60;99.90;;;;;;5091893;28;20548;-78
2021/12/19 01:32:24;;;;;;;30.23;16.35;;;7.60;99.90;;;;;;5093024;28;20059;-78
2021/12/19 01:34:50;;;;;;;29.70;16.08;;;7.60;99.90;;;;;;5059748;28;20130;-78
2021/12/19 01:37:16;;;;;;;30.15;16.17;;;7.50;99.90;;;;;;5110173;28;20080;-78
2021/12/19 01:39:41;;;;;;;32.80;16.42;;;7.50;99.90;;;;;;5110685;28;20163;-78
2021/12/19 01:42:12;;;;;;;26.63;14.75;;;7.60;99.90;;;;;;5093162;28;20036;-78
2021/12/19 01:44:38;;;;;;;30.27;15.38;;;7.50;99.90;;;;;;5093033;28;20031;-78
2021/12/19 01:47:05;;;;;;;27.25;15.20;;;7.50;99.90;;;;;;5111633;28;20103;-78
2021/12/19 01:49:30;;;;;;;28.98;16.20;;;7.60;99.90;;;;;;5076032;28;20035;-77
2021/12/19 01:51:56;;;;;;;30.30;16.95;;;7.50;99.90;;;;;;5093249;28;20042;-78
2021/12/19 01:54:22;;;;;;;30.42;16.63;;;7.50;99.90;;;;;;5093221;28;20027;-78
2021/12/19 01:56:48;;;;;;;28.98;16.08;;;7.50;99.90;;;;;;5093370;28;20039;-78
2021/12/19 01:59:14;;;;;;;42.80;19.52;;;7.50;99.90;;;;;;5092521;28;20039;-77
2021/12/19 02:02:00;;;;;;;30.05;15.80;;;7.50;99.90;;;;;;5092730;28;20059;-77
2021/12/19 02:04:30;;;;;;;33.20;16.35;;;7.50;99.90;;;;;;5110482;28;20420;-78
2021/12/19 02:06:56;;;;;;;34.60;17.25;;;7.40;99.90;;;;;;5093276;28;20084;-78
2021/12/19 02:09:22;;;;;;;27.27;15.30;;;7.50;99.90;;;;;;5079652;28;20032;-78
2021/12/19 02:11:48;;;;;;;29.23;16.50;;;7.50;99.90;;;;;;5093021;28;20081;-78
2021/12/19 02:14:13;;;;;;;32.25;15.73;;;7.40;99.90;;;;;;5095072;28;20483;-78
2021/12/19 02:16:40;;;;;;;28.75;15.20;;;7.40;99.90;;;;;;5107570;28;20063;-78
2021/12/19 02:19:08;;;;;;;29.50;14.27;;;7.40;99.90;;;;;;5079685;28;20028;-78
2021/12/19 02:21:34;;;;;;;26.02;12.38;;;7.40;99.90;;;;;;5113505;28;20046;-77
2021/12/19 02:24:06;;;;;;;20.73;11.73;;;7.40;99.90;;;;;;5115663;28;20042;-78
2021/12/19 02:26:32;;;;;;;31.73;13.70;;;7.40;99.90;;;;;;5115450;28;20377;-78
2021/12/19 02:28:57;;;;;;;24.60;11.57;;;7.40;99.90;;;;;;5096393;28;20028;-78
2021/12/19 02:31:23;;;;;;;22.33;11.68;;;7.40;99.90;;;;;;5079029;28;20055;-78
2021/12/19 02:34:13;;;;;;;26.45;12.80;;;7.40;99.90;;;;;;5096395;28;20066;-76
2021/12/19 02:36:54;;;;;;;24.70;12.38;;;7.40;99.90;;;;;;5094493;28;20534;-76
2021/12/19 02:48:17;;;;;;;36.53;14.02;;;7.30;99.90;;;;;;5089533;28;20101;-76
2021/12/19 02:50:51;;;;;;;26.00;12.93;;;7.30;99.90;;;;;;5099713;28;20567;-76
2021/12/19 02:53:26;;;;;;;29.85;14.07;;;7.30;99.90;;;;;;5115350;28;20031;-76
2021/12/19 02:55:52;;;;;;;39.38;15.07;;;7.30;99.90;;;;;;5096546;28;20032;-76
2021/12/19 02:58:18;;;;;;;46.92;16.58;;;7.30;99.90;;;;;;5063292;28;20034;-76
2021/12/19 03:00:44;;;;;;;50.55;18.00;;;7.30;99.90;;;;;;5097190;28;20023;-76
2021/12/19 03:03:09;;;;;;;40.80;17.45;;;7.30;99.90;;;;;;5115633;28;20069;-76
2021/12/19 03:05:37;;;;;;;38.03;16.23;;;7.20;99.90;;;;;;5115008;28;20472;-76
2021/12/19 03:08:04;;;;;;;43.58;18.10;;;7.30;99.90;;;;;;5097073;28;20396;-76
2021/12/19 03:18:32;;;;;;;55.65;18.95;;;7.20;99.90;;;;;;5099692;28;20092;-76
2021/12/19 03:20:58;;;;;;;54.67;19.48;;;7.20;99.90;;;;;;5079749;28;20028;-75
2021/12/19 03:23:25;;;;;;;55.67;19.60;;;7.20;99.90;;;;;;5096238;28;20122;-76
2021/12/19 03:25:51;;;;;;;69.82;20.60;;;7.30;99.90;;;;;;5096500;28;20038;-76
2021/12/19 03:28:17;;;;;;;79.88;21.55;;;7.20;99.90;;;;;;5096577;28;20027;-76
2021/12/19 03:30:44;;;;;;;53.90;19.65;;;7.20;99.90;;;;;;5096351;28;20058;-76
2021/12/19 03:33:12;;;;;;;57.15;20.40;;;7.20;99.90;;;;;;5080576;28;20035;-76
2021/12/19 03:35:39;;;;;;;57.45;21.25;;;7.20;99.90;;;;;;5079633;28;20122;-76
2021/12/19 03:38:09;;;;;;;59.80;20.48;;;7.20;99.90;;;;;;5096912;28;20133;-76
2021/12/19 03:40:37;;;;;;;79.80;22.42;;;7.20;99.90;;;;;;5096475;28;20472;-76
2021/12/19 03:43:13;;;;;;;56.47;19.90;;;7.20;99.90;;;;;;5079708;28;20118;-76
2021/12/19 03:45:40;;;;;;;55.60;20.13;;;7.20;99.90;;;;;;5096272;28;20064;-76
2021/12/19 03:48:11;;;;;;;71.63;21.25;;;7.20;99.90;;;;;;5096358;28;20714;-76
2021/12/19 03:50:38;;;;;;;69.13;21.52;;;7.20;99.90;;;;;;5095956;28;20023;-76
2021/12/19 03:53:04;;;;;;;74.75;21.63;;;7.20;99.90;;;;;;5114767;28;20209;-76
2021/12/19 03:55:30;;;;;;;53.42;19.63;;;7.10;99.90;;;;;;5114214;28;20499;-76
2021/12/19 03:57:58;;;;;;;63.50;21.33;;;7.20;99.90;;;;;;5095803;28;20027;-76
2021/12/19 04:00:26;;;;;;;79.95;21.90;;;7.20;99.90;;;;;;5094941;28;20030;-78
2021/12/19 04:02:54;;;;;;;61.05;20.50;;;7.20;99.90;;;;;;5094246;28;20124;-78
2021/12/19 04:05:21;;;;;;;54.97;20.20;;;7.20;99.90;;;;;;5111748;28;20020;-78
2021/12/19 04:07:47;;;;;;;68.95;22.05;;;7.10;99.90;;;;;;5077361;28;20036;-78
2021/12/19 04:10:13;;;;;;;72.95;21.38;;;7.20;99.90;;;;;;5094475;28;20040;-78
2021/12/19 04:12:38;;;;;;;80.68;21.40;;;7.10;99.90;;;;;;5112976;28;20036;-78
2021/12/19 04:15:05;;;;;;;63.35;20.50;;;7.20;99.90;;;;;;5112385;28;20047;-78
2021/12/19 04:17:31;;;;;;;53.10;18.58;;;7.20;99.90;;;;;;5113096;28;20073;-77
2021/12/19 04:19:57;;;;;;;51.28;17.70;;;7.10;99.90;;;;;;5112106;28;20098;-77
2021/12/19 04:22:23;;;;;;;51.08;17.20;;;7.10;99.90;;;;;;5077681;28;20123;-78
2021/12/19 04:24:48;;;;;;;49.60;16.35;;;7.10;99.90;;;;;;5093914;28;20043;-78
2021/12/19 04:27:14;;;;;;;53.22;17.92;;;7.10;99.90;;;;;;5094044;28;20040;-77
2021/12/19 04:29:39;;;;;;;48.38;17.58;;;7.10;99.90;;;;;;5077478;28;20032;-78
2021/12/19 04:32:07;;;;;;;53.40;17.92;;;7.10;99.90;;;;;;5112871;28;20076;-78
2021/12/19 04:34:33;;;;;;;59.97;18.42;;;7.10;99.90;;;;;;5078594;28;20031;-78
2021/12/19 04:37:08;;;;;;;57.00;19.27;;;7.10;99.90;;;;;;5111617;28;20028;-78
2021/12/19 04:43:34;;;;;;;59.63;18.10;;;7.00;99.90;;;;;;5078221;28;20497;-77
2021/12/19 04:58:54;;;;;;;57.70;18.35;;;7.00;99.90;;;;;;5098483;28;20035;-77
2021/12/19 05:14:06;;;;;;;54.95;19.50;;;7.00;99.90;;;;;;5098297;28;20506;-80
2021/12/19 05:14:43;;;;;;;57.70;18.10;;;7.00;99.90;;;;;;5079534;28;20032;-80
2021/12/19 05:17:15;;;;;;;53.45;18.33;;;6.90;99.90;;;;;;5112732;28;20015;-80
2021/12/19 05:20:02;;;;;;;64.88;17.55;;;7.00;99.90;;;;;;5078621;28;20024;-80
2021/12/19 05:22:30;;;;;;;82.38;20.52;;;7.00;99.90;;;;;;5097511;28;20067;-80
2021/12/19 05:25:14;;;;;;;46.00;18.05;;;7.00;99.90;;;;;;5112296;28;20027;-80
2021/12/19 05:27:41;;;;;;;61.83;18.67;;;6.90;99.90;;;;;;5104700;28;20169;-80
2021/12/19 05:30:08;;;;;;;50.20;18.27;;;6.90;99.90;;;;;;5094427;28;20076;-80
2021/12/19 05:32:33;;;;;;;47.42;17.38;;;6.90;99.90;;;;;;5095012;28;20047;-80
2021/12/19 05:34:59;;;;;;;44.20;16.75;;;6.90;99.90;;;;;;5094447;28;20922;-79
2021/12/19 05:45:38;;;;;;;39.25;15.00;;;6.80;99.90;;;;;;5093149;28;20039;-80
2021/12/19 05:48:04;;;;;;;36.92;14.63;;;6.80;99.90;;;;;;5077712;28;20032;-80
2021/12/19 05:50:29;;;;;;;43.92;16.17;;;6.80;99.90;;;;;;5063609;28;20042;-80
2021/12/19 05:52:55;;;;;;;44.45;16.73;;;6.80;99.90;;;;;;5117198;28;20084;-80
2021/12/19 05:55:21;;;;;;;46.00;17.27;;;6.80;99.90;;;;;;5098453;28;20084;-80
2021/12/19 05:57:47;;;;;;;45.50;17.60;;;6.80;99.90;;;;;;5081977;28;20437;-80
2021/12/19 06:00:16;;;;;;;56.00;18.08;;;6.90;99.90;;;;;;5116892;28;20024;-80
2021/12/19 06:02:42;;;;;;;49.47;18.10;;;6.80;99.90;;;;;;5117249;28;20016;-80
2021/12/19 06:05:09;;;;;;;46.63;17.67;;;6.80;99.90;;;;;;5116029;28;20046;-80
2021/12/19 06:07:35;;;;;;;39.20;17.27;;;6.80;99.90;;;;;;5116821;28;20024;-80
2021/12/19 06:10:02;;;;;;;35.13;14.95;;;6.80;99.90;;;;;;5097783;28;20031;-80
2021/12/19 06:12:28;;;;;;;36.95;15.02;;;6.70;99.90;;;;;;5116161;28;20031;-80
2021/12/19 06:14:54;;;;;;;32.22;13.38;;;6.80;99.90;;;;;;5097635;28;20109;-80
2021/12/19 06:17:19;;;;;;;36.72;12.90;;;6.70;99.90;;;;;;5115799;28;20038;-80
2021/12/19 06:19:45;;;;;;;30.92;12.30;;;6.70;99.90;;;;;;5080132;28;20540;-80
2021/12/19 06:22:11;;;;;;;37.63;13.25;;;6.70;99.90;;;;;;5080954;28;20737;-80
2021/12/19 06:24:36;;;;;;;27.20;10.85;;;6.70;99.90;;;;;;5079545;28;20473;-80
2021/12/19 06:27:04;;;;;;;29.77;11.73;;;6.70;99.90;;;;;;5095606;28;20088;-80
2021/12/19 06:29:31;;;;;;;30.13;11.35;;;6.60;99.90;;;;;;5115441;28;20110;-80
2021/12/19 06:31:57;;;;;;;27.52;10.45;;;6.70;99.90;;;;;;5098242;28;20054;-80
2021/12/19 06:34:23;;;;;;;27.67;9.52;;;6.60;99.90;;;;;;5097925;28;20032;-80
2021/12/19 06:36:51;;;;;;;30.30;9.82;;;6.70;99.90;;;;;;5116101;28;20136;-80
2021/12/19 06:39:18;;;;;;;19.45;8.63;;;6.60;99.90;;;;;;5081781;28;20024;-80
2021/12/19 06:41:43;;;;;;;19.02;8.32;;;6.70;99.90;;;;;;5097915;28;20030;-80
2021/12/19 06:44:09;;;;;;;14.23;6.65;;;6.70;99.90;;;;;;5080679;28;20028;-80
2021/12/19 06:46:35;;;;;;;13.80;6.53;;;6.70;99.90;;;;;;5097317;28;21795;-80
2021/12/19 06:49:00;;;;;;;13.30;5.90;;;6.60;99.90;;;;;;5097570;28;20496;-80
2021/12/19 06:51:26;;;;;;;13.30;5.20;;;6.70;99.90;;;;;;5080726;28;20031;-80
2021/12/19 06:53:52;;;;;;;11.10;4.68;;;6.60;99.90;;;;;;5115787;28;20072;-80
2021/12/19 06:56:18;;;;;;;11.27;5.28;;;6.70;99.90;;;;;;5080221;28;20088;-80
2021/12/19 06:58:43;;;;;;;11.18;5.53;;;6.60;99.90;;;;;;5079370;28;20023;-80
2021/12/19 07:01:09;;;;;;;10.68;5.20;;;6.60;99.90;;;;;;5063692;28;20061;-80
2021/12/19 07:03:35;;;;;;;11.60;5.60;;;6.60;99.90;;;;;;5115630;28;20019;-80
2021/12/19 07:06:01;;;;;;;16.20;5.68;;;6.50;99.90;;;;;;5063616;28;20026;-80
2021/12/19 07:08:27;;;;;;;15.95;5.70;;;6.60;99.90;;;;;;5080085;28;20027;-78
2021/12/19 07:10:53;;;;;;;9.10;4.93;;;6.60;99.90;;;;;;5096323;28;20037;-78
2021/12/19 07:13:21;;;;;;;12.73;5.28;;;6.60;99.90;;;;;;5063070;28;20089;-78
2021/12/19 07:15:51;;;;;;;11.68;5.28;;;6.60;99.90;;;;;;5112141;28;20093;-78
2021/12/19 07:18:17;;;;;;;14.57;6.20;;;6.60;99.90;;;;;;5095496;28;20023;-77
2021/12/19 07:20:43;;;;;;;15.55;5.53;;;6.60;99.90;;;;;;5095543;28;20028;-77
2021/12/19 07:23:14;;;;;;;14.80;6.05;;;6.60;99.90;;;;;;5113939;28;20695;-78
2021/12/19 07:25:41;;;;;;;13.95;5.88;;;6.70;99.90;;;;;;5114108;28;20102;-77
2021/12/19 07:28:07;;;;;;;15.02;6.85;;;6.70;99.90;;;;;;5085239;28;20023;-78
2021/12/19 07:30:36;;;;;;;16.33;7.53;;;6.70;99.90;;;;;;5095533;28;20448;-78
2021/12/19 07:33:03;;;;;;;27.20;8.48;;;6.70;99.90;;;;;;5095803;28;20023;-78
2021/12/19 07:35:31;;;;;;;21.45;8.02;;;6.70;99.90;;;;;;5113422;28;20046;-78
2021/12/19 07:37:57;;;;;;;20.83;8.52;;;6.60;99.90;;;;;;5113631;28;20099;-78
2021/12/19 07:40:24;;;;;;;19.42;7.68;;;6.70;99.90;;;;;;5095306;28;20107;-78
2021/12/19 07:42:52;;;;;;;22.17;8.18;;;6.70;99.90;;;;;;5076541;28;20040;-78
2021/12/19 07:45:18;;;;;;;21.10;8.33;;;6.70;99.90;;;;;;5097043;28;20043;-78
2021/12/19 07:47:44;;;;;;;26.10;9.65;;;6.70;99.90;;;;;;5087309;28;20039;-77
2021/12/19 07:50:11;;;;;;;30.95;9.25;;;6.70;99.90;;;;;;5113519;28;20106;-78
2021/12/19 07:52:37;;;;;;;29.38;9.65;;;6.70;99.90;;;;;;5095029;28;20031;-77
2021/12/19 07:55:05;;;;;;;24.77;8.32;;;6.70;99.90;;;;;;5089415;28;20032;-78
2021/12/19 07:57:31;;;;;;;24.60;8.38;;;6.70;99.90;;;;;;5077951;28;20028;-78
2021/12/19 07:59:56;;;;;;;25.15;9.05;;;6.80;99.90;;;;;;5077878;28;20030;-78
2021/12/19 08:02:22;;;;;;;27.40;9.30;;;6.80;99.90;;;;;;5094408;28;20039;-78
2021/12/19 08:04:47;;;;;;;27.30;9.18;;;6.80;99.90;;;;;;5094750;28;20535;-78
2021/12/19 08:07:16;;;;;;;28.20;7.85;;;6.80;99.90;;;;;;5113975;28;20031;-78
2021/12/19 08:09:59;;;;;;;26.73;8.40;;;6.80;99.90;;;;;;5078554;28;20035;-78
2021/12/19 08:12:25;;;;;;;23.10;7.47;;;6.80;99.90;;;;;;5080597;28;20437;-78
2021/12/19 08:14:51;;;;;;;29.40;8.90;;;6.80;99.90;;;;;;5095553;28;20039;-81
2021/12/19 08:17:17;;;;;;;28.33;8.98;;;6.80;99.90;;;;;;5095492;28;20426;-81
2021/12/19 08:19:43;;;;;;;26.20;8.52;;;6.70;99.90;;;;;;5095401;28;20034;-81
2021/12/19 08:22:09;;;;;;;30.42;8.98;;;6.80;99.90;;;;;;5095091;28;20016;-82
2021/12/19 08:24:36;;;;;;;28.77;8.55;;;6.80;99.90;;;;;;5096431;28;20027;-81
2021/12/19 08:27:02;;;;;;;32.80;9.85;;;6.80;99.90;;;;;;5095918;28;20028;-81
2021/12/19 08:29:27;;;;;;;24.90;8.70;;;6.80;99.90;;;;;;5095619;28;20072;-82
2021/12/19 08:31:53;;;;;;;26.73;9.48;;;6.80;99.90;;;;;;5095454;28;20395;-82
2021/12/19 08:34:20;;;;;;;29.58;9.48;;;6.70;99.90;;;;;;5095305;28;20035;-81
2021/12/19 08:36:45;;;;;;;33.47;10.50;;;6.80;99.90;;;;;;5095243;28;20039;-82
2021/12/19 08:39:12;;;;;;;33.95;11.48;;;6.80;99.90;;;;;;5095188;28;20027;-78
2021/12/19 08:41:39;;;;;;;49.38;14.85;;;6.90;99.90;;;;;;5078822;28;20059;-78
2021/12/19 08:44:05;;;;;;;26.83;11.43;;;6.90;99.90;;;;;;5113696;28;20038;-77
2021/12/19 08:46:35;;;;;;;30.45;10.18;;;6.90;99.90;;;;;;5078323;28;20395;-77
2021/12/19 08:49:04;;;;;;;29.90;10.88;;;6.90;99.90;;;;;;5113664;28;20024;-78
2021/12/19 08:51:32;;;;;;;29.27;10.85;;;6.90;99.90;;;;;;5095096;28;20027;-77
2021/12/19 08:54:00;;;;;;;27.67;10.32;;;6.90;99.90;;;;;;5113355;28;20051;-77
2021/12/19 08:56:26;;;;;;;36.13;13.60;;;6.90;99.90;;;;;;5094902;28;20830;-77
2021/12/19 08:58:52;;;;;;;34.80;13.07;;;6.90;99.90;;;;;;5110083;28;20016;-77
2021/12/19 09:01:17;;;;;;;35.08;11.45;;;6.90;99.90;;;;;;5100220;28;20062;-74
2021/12/19 09:03:43;;;;;;;43.58;13.68;;;6.90;99.90;;;;;;5067281;28;20031;-75
2021/12/19 09:06:09;;;;;;;31.58;13.27;;;6.90;99.90;;;;;;5092418;28;20552;-74
2021/12/19 09:08:34;;;;;;;38.03;13.48;;;7.00;99.90;;;;;;5051916;28;20081;-76
2021/12/19 09:11:00;;;;;;;38.35;12.90;;;7.00;99.90;;;;;;5076201;28;20055;-75
2021/12/19 09:13:26;;;;;;;30.27;13.05;;;7.00;99.90;;;;;;5080555;28;20032;-76
2021/12/19 09:15:52;;;;;;;29.67;12.95;;;6.90;99.90;;;;;;5071436;28;20063;-76
2021/12/19 09:18:19;;;;;;;31.58;12.93;;;7.00;99.90;;;;;;5072645;28;20023;-76
2021/12/19 09:20:45;;;;;;;31.48;13.10;;;7.00;99.90;;;;;;5066573;28;20032;-76
2021/12/19 09:23:11;;;;;;;33.08;13.93;;;7.00;99.90;;;;;;5066655;28;20106;-76
2021/12/19 09:25:38;;;;;;;32.15;13.15;;;7.00;99.90;;;;;;5059475;28;20031;-75
2021/12/19 09:28:05;;;;;;;34.22;13.30;;;7.10;99.90;;;;;;5095581;28;20504;-76
2021/12/19 09:30:31;;;;;;;43.53;15.63;;;7.10;99.90;;;;;;5071992;28;20028;-76
2021/12/19 09:32:57;;;;;;;27.10;12.98;;;7.10;99.90;;;;;;5072048;28;20062;-76
2021/12/19 09:35:23;;;;;;;29.85;13.18;;;7.10;99.90;;;;;;5073576;28;20068;-76
2021/12/19 09:37:49;;;;;;;44.25;16.38;;;7.10;99.90;;;;;;5089399;28;20044;-76
2021/12/19 09:40:25;;;;;;;40.63;16.17;;;7.10;99.90;;;;;;5094557;28;20035;-75
2021/12/19 09:43:00;;;;;;;32.83;15.50;;;7.10;99.90;;;;;;5069228;28;20392;-76
2021/12/19 09:45:26;;;;;;;37.97;15.95;;;7.10;99.90;;;;;;5077222;28;20049;-76
2021/12/19 09:47:52;;;;;;;41.88;17.42;;;7.10;99.90;;;;;;5096021;28;20024;-75
2021/12/19 09:50:18;;;;;;;41.03;16.85;;;7.10;99.90;;;;;;5072425;28;20028;-75
2021/12/19 09:52:46;;;;;;;37.17;16.70;;;7.20;99.90;;;;;;5063250;28;20506;-79
2021/12/19 09:55:19;;;;;;;36.80;16.35;;;7.20;99.90;;;;;;5091850;28;20035;-79
2021/12/19 09:57:45;;;;;;;36.20;16.92;;;7.20;99.90;;;;;;5073921;28;20020;-79
2021/12/19 10:00:12;;;;;;;35.67;16.98;;;7.20;99.90;;;;;;5081963;28;20396;-79
2021/12/19 10:02:37;;;;;;;41.90;16.13;;;7.20;99.90;;;;;;5098537;28;20051;-81
2021/12/19 10:05:25;;;;;;;42.30;17.83;;;7.30;99.90;;;;;;5083112;28;20542;-82
2021/12/19 10:08:03;;;;;;;40.95;17.17;;;7.30;99.90;;;;;;5080639;28;20116;-82
2021/12/19 10:10:58;;;;;;;42.50;17.05;;;7.30;99.90;;;;;;5075532;28;20040;-82
2021/12/19 10:13:50;;;;;;;42.03;17.17;;;7.30;99.90;;;;;;5080097;28;20791;-82
2021/12/19 10:16:43;;;;;;;56.63;18.38;;;7.30;99.90;;;;;;5055892;28;20039;-82
2021/12/19 10:19:09;;;;;;;39.53;16.92;;;7.30;99.90;;;;;;5071889;28;20040;-82
2021/12/19 10:21:35;;;;;;;43.72;18.35;;;7.30;99.90;;;;;;5080375;28;20020;-82
2021/12/19 10:24:02;;;;;;;49.53;16.90;;;7.30;99.90;;;;;;5075535;28;20043;-82
2021/12/19 10:26:43;;;;;;;47.95;18.08;;;7.40;99.90;;;;;;5066305;28;20077;-83
2021/12/19 10:29:10;;;;;;;49.63;17.63;;;7.40;99.90;;;;;;5082095;28;20063;-82
2021/12/19 10:31:36;;;;;;;43.35;17.35;;;7.40;99.90;;;;;;5074565;28;20547;-82
2021/12/19 10:34:22;;;;;;;42.70;16.50;;;7.40;99.90;;;;;;5093457;28;20024;-81
2021/12/19 10:36:48;;;;;;;51.97;18.55;;;7.50;99.90;;;;;;5095535;28;20032;-82
2021/12/19 10:39:16;;;;;;;41.92;15.90;;;7.40;99.90;;;;;;5114240;28;20501;-82
2021/12/19 10:41:43;;;;;;;39.00;15.32;;;7.40;99.90;;;;;;5097393;28;20077;-82
2021/12/19 10:45:29;;;;;;;50.70;17.20;;;7.40;99.90;;;;;;5096838;28;20055;-82
2021/12/19 10:47:18;;;;;;;50.23;16.80;;;7.40;99.90;;;;;;5093011;28;20044;-82
2021/12/19 10:49:44;;;;;;;50.63;16.52;;;7.40;99.90;;;;;;5097404;28;20261;-82
2021/12/19 10:52:10;;;;;;;55.22;17.33;;;7.50;99.90;;;;;;5097089;28;20118;-81
2021/12/19 10:54:35;;;;;;;48.47;16.67;;;7.50;99.90;;;;;;5115276;28;20062;-82
2021/12/19 10:57:13;;;;;;;45.75;16.95;;;7.50;99.90;;;;;;5087523;28;20031;-82
2021/12/19 10:59:43;;;;;;;45.63;16.20;;;7.50;99.90;;;;;;5095741;28;20032;-81
2021/12/19 11:02:10;;;;;;;40.35;15.30;;;7.50;99.90;;;;;;5096842;28;20594;-79
2021/12/19 11:04:36;;;;;;;37.25;14.65;;;7.50;99.90;;;;;;5095662;28;20105;-79
2021/12/19 11:07:02;;;;;;;39.90;15.57;;;7.50;99.90;;;;;;5095621;28;20027;-80
2021/12/19 11:09:31;;;;;;;38.13;14.00;;;7.50;99.90;;;;;;5098217;28;20020;-80
2021/12/19 11:12:00;;;;;;;40.75;14.95;;;7.60;99.90;;;;;;5103876;28;20131;-80
2021/12/19 11:14:28;;;;;;;40.28;14.63;;;7.60;99.90;;;;;;5088562;28;20059;-81
2021/12/19 11:17:00;;;;;;;27.75;12.00;;;7.60;99.90;;;;;;5095255;28;20044;-80
2021/12/19 11:19:27;;;;;;;30.45;13.25;;;7.60;99.90;;;;;;5076859;28;20028;-81
2021/12/19 11:21:54;;;;;;;31.05;13.02;;;7.60;99.90;;;;;;5076692;28;20036;-81
2021/12/19 11:24:21;;;;;;;27.75;11.55;;;7.60;99.90;;;;;;5064318;28;20024;-81
2021/12/19 11:26:51;;;;;;;26.80;11.02;;;7.60;99.90;;;;;;5079411;28;20024;-82
2021/12/19 11:29:17;;;;;;;24.17;10.75;;;7.70;99.90;;;;;;5114790;28;20034;-82
2021/12/19 11:31:46;;;;;;;26.50;10.73;;;7.60;99.90;;;;;;5114900;28;20111;-81
2021/12/19 11:34:34;;;;;;;21.88;10.10;;;7.70;99.90;;;;;;5113728;28;20444;-81
2021/12/19 11:37:05;;;;;;;22.13;9.85;;;7.70;99.90;;;;;;5087454;28;20035;-80
2021/12/19 11:39:34;;;;;;;20.77;8.52;;;7.60;99.90;;;;;;5114453;28;20031;-80
2021/12/19 11:42:28;;;;;;;17.52;8.65;;;7.60;99.90;;;;;;5114418;28;20098;-80
2021/12/19 11:47:50;;;;;;;18.10;7.68;;;7.60;99.90;;;;;;5114601;28;20051;-80
2021/12/19 11:50:23;;;;;;;18.48;7.70;;;7.60;99.90;;;;;;5086086;28;20038;-80
2021/12/19 11:52:55;;;;;;;10.55;6.18;;;7.60;99.90;;;;;;5094205;28;20020;-80
2021/12/19 11:55:36;;;;;;;12.85;7.15;;;7.60;99.90;;;;;;5094111;28;20445;-82
2021/12/19 11:58:07;;;;;;;17.05;7.35;;;7.60;99.90;;;;;;5111732;28;20043;-80
2021/12/19 12:00:47;;;;;;;14.13;6.43;;;7.70;99.90;;;;;;5109614;28;20077;-80
2021/12/19 12:03:12;;;;;;;13.63;7.47;;;7.70;99.90;;;;;;5095816;28;20026;-80
2021/12/19 12:05:49;;;;;;;12.15;7.03;;;7.60;99.90;;;;;;5094355;28;20114;-80
2021/12/19 12:08:17;;;;;;;11.57;6.60;;;7.60;99.90;;;;;;5086673;28;20065;-80
2021/12/19 12:10:49;;;;;;;8.18;4.65;;;7.70;99.90;;;;;;5092452;28;20031;-80
2021/12/19 12:13:30;;;;;;;7.85;3.58;;;7.70;99.90;;;;;;5095288;28;20564;-80
2021/12/19 12:18:45;;;;;;;5.18;2.88;;;7.70;99.90;;;;;;5091038;28;20077;-80
2021/12/19 12:21:21;;;;;;;3.95;2.70;;;7.70;99.90;;;;;;5113969;28;20426;-79
2021/12/19 12:23:58;;;;;;;4.85;2.83;;;7.70;99.90;;;;;;5095572;28;20642;-79
2021/12/19 12:26:45;;;;;;;4.88;2.60;;;7.70;99.90;;;;;;5089211;28;20388;-79
2021/12/19 12:29:11;;;;;;;4.72;2.55;;;7.70;99.90;;;;;;5103710;27;20693;-79
2021/12/19 12:31:38;;;;;;;6.32;1.98;;;7.70;99.90;;;;;;5113171;28;20027;-77
2021/12/19 12:34:13;;;;;;;3.88;1.83;;;7.70;99.90;;;;;;5078259;28;20038;-77
2021/12/19 12:36:39;;;;;;;3.95;1.92;;;7.70;99.90;;;;;;5113292;28;20024;-77
2021/12/19 12:39:10;;;;;;;2.33;1.80;;;7.70;99.90;;;;;;5112828;28;20031;-77
2021/12/19 12:44:11;;;;;;;7.40;3.90;;;7.70;99.90;;;;;;5112996;28;20106;-77
2021/12/19 12:46:38;;;;;;;7.95;3.67;;;7.70;99.90;;;;;;5113225;28;20030;-76
2021/12/19 12:49:15;;;;;;;6.93;4.18;;;7.70;99.90;;;;;;5094466;28;20058;-77
2021/12/19 12:51:46;;;;;;;4.95;3.90;;;7.70;99.90;;;;;;5110777;28;20016;-77
2021/12/19 12:54:24;;;;;;;5.57;3.13;;;7.80;99.90;;;;;;5088300;28;20035;-77
2021/12/19 12:56:53;;;;;;;6.32;3.30;;;7.70;99.90;;;;;;5090615;28;20038;-77
2021/12/19 12:59:20;;;;;;;3.42;2.72;;;7.70;99.90;;;;;;5111067;28;20032;-78
2021/12/19 13:01:53;;;;;;;3.45;2.70;;;7.70;99.90;;;;;;5106254;28;20024;-77
2021/12/19 13:04:21;;;;;;;3.30;2.35;;;7.70;99.90;;;;;;5111985;28;20031;-78
2021/12/19 13:06:52;;;;;;;4.40;2.80;;;7.70;99.90;;;;;;5107144;28;20027;-77
2021/12/19 13:09:23;;;;;;;4.18;2.50;;;7.70;99.90;;;;;;5113343;28;20023;-77
2021/12/19 13:12:10;;;;;;;3.03;2.50;;;7.70;99.90;;;;;;5095101;28;20019;-77
2021/12/19 13:14:45;;;;;;;3.75;1.90;;;7.70;99.90;;;;;;5112353;28;20046;-77
2021/12/19 13:17:18;;;;;;;2.15;1.95;;;7.70;99.90;;;;;;5113190;28;20055;-77
2021/12/19 13:20:05;;;;;;;3.35;2.05;;;7.80;99.90;;;;;;5113377;28;20077;-77
2021/12/19 13:22:35;;;;;;;4.63;1.92;;;7.80;99.90;;;;;;5113622;28;20437;-77
2021/12/19 13:25:12;;;;;;;2.25;1.85;;;7.80;99.90;;;;;;5113296;28;20019;-76
2021/12/19 13:27:59;;;;;;;3.20;2.28;;;7.80;99.90;;;;;;5095260;28;20084;-77
2021/12/19 13:30:36;;;;;;;2.63;2.00;;;7.80;99.90;;;;;;5113697;28;20027;-77
2021/12/19 13:33:07;;;;;;;2.58;2.30;;;7.80;99.90;;;;;;5113271;28;20023;-77
2021/12/19 13:35:51;;;;;;;3.17;2.17;;;7.80;99.90;;;;;;5094550;28;20492;-77
2021/12/19 13:38:19;;;;;;;2.33;1.88;;;7.80;99.90;;;;;;5112373;28;20019;-77
2021/12/19 13:40:47;;;;;;;2.50;1.80;;;7.80;99.90;;;;;;5112658;28;20389;-77
2021/12/19 13:43:14;;;;;;;3.78;2.03;;;7.90;99.90;;;;;;5111121;28;20028;-77
2021/12/19 13:45:47;;;;;;;2.05;1.40;;;7.90;99.90;;;;;;5111453;28;20112;-77
2021/12/19 13:48:18;;;;;;;2.58;1.63;;;7.90;99.90;;;;;;5112833;28;20553;-77
2021/12/19 13:51:12;;;;;;;3.42;1.77;;;7.90;99.90;;;;;;5113032;28;20031;-77
2021/12/19 13:53:42;;;;;;;2.60;1.90;;;7.80;99.90;;;;;;5099297;28;20040;-77